Time;durP1;ratioP1;P1;durP2;ratioP2;P2;SDS_P1;SDS_P2;PMS_P1;PMS_P2;Temp;Humidity;BMP_temperature;BMP_pressure;BME280_temperature;BME280_humidity;BME280_pressure;Samples;Min_cycle;Max_cycle;Signal;HPM_P1;HPM_P2
2021/10/29 00:02:15;;;;;;;27.40;16.85;;;;;;;8.09;100.00;100935.47;5132370;27;20035;-82
2021/10/29 00:04:41;;;;;;;24.87;16.37;;;;;;;8.09;100.00;100951.41;5131418;27;20027;-82
2021/10/29 00:07:08;;;;;;;29.70;17.38;;;;;;;7.99;100.00;100935.47;5131681;27;20524;-81
2021/10/29 00:09:34;;;;;;;23.80;15.10;;;;;;;7.89;100.00;100934.66;5114266;27;20268;-81
2021/10/29 00:12:00;;;;;;;;;;;;;;;7.88;100.00;100948.91;5114644;27;20467;-81
2021/10/29 00:14:26;;;;;;;;;;;;;;;7.81;100.00;100958.41;5131817;27;19942;-81
2021/10/29 00:16:52;;;;;;;;;;;;;;;7.76;100.00;100965.97;5131622;27;19915;-81
2021/10/29 00:19:18;;;;;;;26.77;16.73;;;;;;;7.73;100.00;100976.91;5132372;27;19915;-82
2021/10/29 00:21:44;;;;;;;27.80;16.23;;;;;;;7.81;100.00;100980.50;5113988;27;20276;-82
2021/10/29 00:24:10;;;;;;;29.60;17.07;;;;;;;7.73;100.00;100967.09;5130882;27;20019;-82
2021/10/29 00:26:36;;;;;;;31.73;16.27;;;;;;;7.79;100.00;100978.97;5131382;27;20291;-81
2021/10/29 00:29:01;;;;;;;29.35;16.73;;;;;;;7.68;100.00;100979.09;5132031;27;20807;-82
2021/10/29 00:31:27;;;;;;;29.92;16.15;;;;;;;7.71;100.00;100974.38;5132036;27;20043;-82
2021/10/29 00:33:52;;;;;;;24.67;15.27;;;;;;;7.55;100.00;100953.63;5130857;27;20062;-81
2021/10/29 00:36:18;;;;;;;36.13;18.27;;;;;;;7.51;100.00;100938.94;5131167;27;20031;-81
2021/10/29 00:38:43;;;;;;;26.57;17.00;;;;;;;7.53;100.00;100946.78;5114101;27;20023;-81
2021/10/29 00:41:08;;;;;;;31.57;16.00;;;;;;;7.54;100.00;100954.63;5114200;27;20031;-81
2021/10/29 00:43:34;;;;;;;29.88;15.30;;;;;;;7.43;100.00;100938.81;5113466;27;20118;-81
2021/10/29 00:45:59;;;;;;;28.27;17.37;;;;;;;7.25;100.00;100919.19;5113733;27;20056;-81
2021/10/29 00:48:25;;;;;;;26.00;15.17;;;;;;;7.30;100.00;100924.94;5132107;27;20092;-82
2021/10/29 00:50:51;;;;;;;28.67;17.10;;;;;;;7.25;100.00;100930.66;5130795;27;20111;-82
2021/10/29 00:53:16;;;;;;;28.42;17.15;;;;;;;7.18;100.00;100927.69;5130303;27;20077;-80
2021/10/29 00:55:42;;;;;;;29.27;17.15;;;;;;;7.24;100.00;100950.22;5130924;27;20070;-81
2021/10/29 00:58:08;;;;;;;31.45;18.00;;;;;;;7.31;100.00;100966.47;5130575;27;20129;-80
2021/10/29 01:00:34;;;;;;;34.80;17.50;;;;;;;7.24;100.00;100954.72;5113496;27;20038;-81
2021/10/29 01:02:59;;;;;;;30.17;18.20;;;;;;;7.30;100.00;100964.75;5113102;27;20368;-81
2021/10/29 01:05:25;;;;;;;33.00;16.67;;;;;;;7.21;100.00;100960.25;5130040;27;20035;-81
2021/10/29 01:07:52;;;;;;;27.30;16.77;;;;;;;7.06;100.00;100952.69;5131338;27;20023;-81
2021/10/29 01:10:17;;;;;;;27.98;17.10;;;;;;;7.11;100.00;100963.72;5130477;27;20129;-80
2021/10/29 01:12:43;;;;;;;33.20;16.93;;;;;;;7.06;100.00;100958.00;5130383;27;20126;-80
2021/10/29 01:15:09;;;;;;;31.67;18.38;;;;;;;7.10;100.00;100966.53;5130032;27;20038;-80
2021/10/29 01:17:35;;;;;;;31.38;18.40;;;;;;;7.15;100.00;100970.47;5112221;27;20035;-80
2021/10/29 01:20:03;;;;;;;30.77;17.95;;;;;;;7.14;100.00;100975.91;5130007;27;20062;-80
2021/10/29 01:22:28;;;;;;;33.78;18.80;;;;;;;7.10;100.00;100974.50;5130991;27;20034;-80
2021/10/29 01:24:54;;;;;;;35.50;18.65;;;;;;;7.06;100.00;100973.09;5129461;27;20061;-79
2021/10/29 01:27:21;;;;;;;33.38;18.67;;;;;;;7.12;100.00;100978.69;5129870;27;20524;-80
2021/10/29 01:29:47;;;;;;;34.75;19.75;;;;;;;7.11;100.00;100970.88;5129927;27;20057;-79
2021/10/29 01:32:13;;;;;;;32.83;20.02;;;;;;;7.14;100.00;100974.09;5131158;27;20110;-80
2021/10/29 01:34:41;;;;;;;39.97;19.95;;;;;;;7.06;100.00;100958.00;5129621;27;20414;-79
2021/10/29 01:37:09;;;;;;;32.72;19.77;;;;;;;7.18;100.00;100962.22;5130729;27;20043;-80
2021/10/29 01:39:35;;;;;;;28.55;17.38;;;;;;;7.00;100.00;100929.34;5112438;27;20031;-79
2021/10/29 01:42:02;;;;;;;31.10;18.42;;;;;;;7.06;100.00;100931.44;5130404;27;20023;-79
2021/10/29 01:44:28;;;;;;;26.80;17.55;;;;;;;7.08;100.00;100923.34;5112026;27;20043;-80
2021/10/29 01:46:54;;;;;;;29.40;17.63;;;;;;;7.15;100.00;100943.06;5113091;27;20034;-79
2021/10/29 01:49:20;;;;;;;32.80;17.90;;;;;;;7.06;100.00;100930.59;5132788;27;20130;-79
2021/10/29 01:51:45;;;;;;;32.22;18.67;;;;;;;7.02;100.00;100935.34;5133159;27;20102;-79
2021/10/29 01:54:11;;;;;;;42.77;18.97;;;;;;;7.00;100.00;100936.44;5131366;27;20035;-79
2021/10/29 01:56:37;;;;;;;31.95;19.13;;;;;;;6.99;100.00;100943.56;5132757;27;20085;-79
2021/10/29 01:59:02;;;;;;;31.52;18.67;;;;;;;6.90;100.00;100936.41;5113522;27;20062;-79
2021/10/29 02:01:28;;;;;;;31.07;18.07;;;;;;;6.92;100.00;100934.47;5130615;27;20035;-78
2021/10/29 02:03:53;;;;;;;33.90;19.58;;;;;;;6.96;100.00;100946.50;5130115;27;20280;-79
2021/10/29 02:06:19;;;;;;;65.15;21.25;;;;;;;6.95;100.00;100944.81;5131259;27;20027;-79
2021/10/29 02:08:46;;;;;;;32.07;18.00;;;;;;;7.01;100.00;100954.06;5130465;27;20371;-79
2021/10/29 02:11:11;;;;;;;32.50;19.40;;;;;;;6.95;100.00;100940.38;5130263;27;20091;-79
2021/10/29 02:13:38;;;;;;;35.47;18.57;;;;;;;7.00;100.00;100945.28;5130436;27;20027;-79
2021/10/29 02:16:04;;;;;;;33.17;18.92;;;;;;;6.95;100.00;100945.66;5113772;27;20280;-79
2021/10/29 02:18:30;;;;;;;35.42;19.50;;;;;;;6.93;100.00;100939.66;5133670;27;20372;-79
2021/10/29 02:20:56;;;;;;;31.23;18.20;;;;;;;6.94;100.00;100945.78;5134914;27;20041;-78
2021/10/29 02:23:22;;;;;;;34.30;18.55;;;;;;;6.86;100.00;100927.91;5131760;27;20456;-79
2021/10/29 02:25:48;;;;;;;36.75;19.42;;;;;;;6.76;100.00;100911.91;5132083;27;20031;-78
2021/10/29 02:28:15;;;;;;;;;;;;;;;6.79;100.00;100931.19;5133051;27;20130;-79
2021/10/29 02:30:42;;;;;;;33.78;19.73;;;;;;;6.71;100.00;100926.56;5132405;27;19990;-78
2021/10/29 02:33:08;;;;;;;33.78;19.52;;;;;;;6.70;100.00;100931.03;5132395;27;20066;-78
2021/10/29 02:35:34;;;;;;;;;;;;;;;6.72;100.00;100938.88;5131863;27;20027;-78
2021/10/29 02:37:59;;;;;;;;;;;;;;;6.74;100.00;100945.72;5132408;27;19998;-79
2021/10/29 02:40:24;;;;;;;37.25;17.95;;;;;;;6.63;100.00;100939.66;5114572;27;19915;-79
2021/10/29 02:42:50;;;;;;;31.43;18.20;;;;;;;6.50;100.00;100918.63;5131583;27;20035;-79
2021/10/29 02:45:16;;;;;;;34.83;19.77;;;;;;;6.57;100.00;100940.19;5113611;27;20043;-78
2021/10/29 02:47:46;;;;;;;36.40;20.60;;;;;;;6.54;100.00;100941.28;5132040;27;20035;-79
2021/10/29 02:50:13;;;;;;;38.08;18.95;;;;;;;6.43;100.00;100928.09;5113415;27;20130;-79
2021/10/29 02:52:39;;;;;;;34.65;19.80;;;;;;;6.54;100.00;100947.44;5131307;27;20066;-79
2021/10/29 02:55:05;;;;;;;35.27;19.47;;;;;;;6.52;100.00;100948.53;5112252;27;20100;-78
2021/10/29 02:57:30;;;;;;;39.65;19.73;;;;;;;6.57;100.00;100962.25;5112847;27;20062;-79
2021/10/29 02:59:56;;;;;;;34.92;20.13;;;;;;;6.45;100.00;100952.69;5096486;27;20091;-79
2021/10/29 03:02:21;;;;;;;36.77;19.73;;;;;;;6.41;100.00;100940.66;5113056;27;20341;-79
2021/10/29 03:04:47;;;;;;;32.63;18.57;;;;;;;6.43;100.00;100954.63;5130906;27;20326;-78
2021/10/29 03:07:13;;;;;;;35.95;20.08;;;;;;;6.38;100.00;100951.53;5130103;27;20133;-78
2021/10/29 03:09:39;;;;;;;37.67;18.65;;;;;;;6.49;100.00;100970.84;5095943;27;20142;-78
2021/10/29 03:12:04;;;;;;;41.33;20.13;;;;;;;6.51;100.00;100960.13;5113013;27;20445;-79
2021/10/29 03:14:30;;;;;;;36.78;19.70;;;;;;;6.40;100.00;100945.13;5095518;27;20122;-78
2021/10/29 03:16:55;;;;;;;34.17;19.53;;;;;;;6.40;100.00;100936.31;5112649;27;20042;-79
2021/10/29 03:19:21;;;;;;;34.97;19.95;;;;;;;6.35;100.00;100936.72;5130645;27;20038;-78
2021/10/29 03:21:46;;;;;;;36.47;20.50;;;;;;;6.29;100.00;100938.06;5130778;27;20031;-78
2021/10/29 03:24:12;;;;;;;38.72;19.90;;;;;;;6.16;100.00;100925.97;5129445;27;20143;-79
2021/10/29 03:26:38;;;;;;;32.47;18.33;;;;;;;6.12;100.00;100917.44;5095919;28;20570;-78
2021/10/29 03:29:03;;;;;;;28.02;17.73;;;;;;;6.02;100.00;100898.00;5112887;27;20023;-79
2021/10/29 03:31:29;;;;;;;36.13;20.00;;;;;;;5.95;100.00;100883.56;5129632;27;20031;-79
2021/10/29 03:33:55;;;;;;;40.77;21.60;;;;;;;5.92;100.00;100872.25;5112761;28;20042;-79
2021/10/29 03:36:20;;;;;;;34.58;18.42;;;;;;;5.88;100.00;100886.72;5095642;28;20054;-79
2021/10/29 03:39:01;;;;;;;34.88;19.75;;;;;;;5.90;100.00;100889.25;5112733;28;20043;-79
2021/10/29 03:41:30;;;;;;;33.28;18.67;;;;;;;5.79;100.00;100882.19;5112553;28;20500;-79
2021/10/29 03:44:14;;;;;;;38.58;20.17;;;;;;;5.73;100.00;100869.44;5112216;28;20091;-78
2021/10/29 03:46:40;;;;;;;35.35;19.25;;;;;;;5.61;100.00;100857.22;5130844;27;20106;-78
2021/10/29 03:49:23;;;;;;;33.72;18.83;;;;;;;5.48;100.00;100834.41;5112574;28;20894;-79
2021/10/29 03:51:56;;;;;;;38.10;18.15;;;;;;;5.36;100.00;100821.31;5130225;28;20031;-79
2021/10/29 03:54:29;;;;;;;39.33;18.95;;;;;;;5.27;100.00;100813.19;5129571;28;20460;-79
2021/10/29 03:57:40;;;;;;;30.98;17.05;;;;;;;5.25;100.00;100816.94;5112295;28;20042;-78
2021/10/29 03:59:40;;;;;;;32.17;17.83;;;;;;;5.22;100.00;100819.81;5108448;28;20039;-79
2021/10/29 04:02:09;;;;;;;31.93;17.77;;;;;;;5.13;100.00;100810.84;5130577;28;20050;-79
2021/10/29 04:04:35;;;;;;;30.80;17.33;;;;;;;5.17;100.00;100827.28;5129462;28;20031;-79
2021/10/29 04:07:01;;;;;;;36.08;19.13;;;;;;;5.22;100.00;100846.28;5130070;28;20874;-79
2021/10/29 04:09:26;;;;;;;39.83;20.83;;;;;;;5.32;100.00;100867.56;5130958;28;20042;-79
2021/10/29 04:11:52;;;;;;;39.90;22.50;;;;;;;5.48;100.00;100905.91;5129806;28;20054;-78
2021/10/29 04:14:21;;;;;;;42.47;22.63;;;;;;;5.46;100.00;100918.44;5129447;28;20027;-78
2021/10/29 04:16:47;;;;;;;42.58;23.50;;;;;;;5.64;100.00;100937.28;5129629;28;20110;-79
2021/10/29 04:19:14;;;;;;;45.47;22.17;;;;;;;5.67;100.00;100942.31;5112484;28;20177;-78
2021/10/29 04:21:40;;;;;;;42.33;21.48;;;;;;;5.59;100.00;100934.16;5129542;28;20038;-78
2021/10/29 04:24:07;;;;;;;38.80;21.33;;;;;;;5.45;100.00;100914.09;5111895;28;20035;-77
2021/10/29 04:26:34;;;;;;;42.67;21.90;;;;;;;5.42;100.00;100917.00;5130175;28;20368;-78
2021/10/29 04:29:01;;;;;;;47.60;23.13;;;;;;;5.46;100.00;100929.03;5130232;28;20102;-78
2021/10/29 04:31:29;;;;;;;42.83;22.15;;;;;;;5.47;100.00;100928.03;5129195;28;20031;-79
2021/10/29 04:33:55;;;;;;;35.88;20.20;;;;;;;5.34;100.00;100898.25;5128827;28;20035;-78
2021/10/29 04:36:23;;;;;;;40.45;20.52;;;;;;;5.25;100.00;100894.53;5112265;28;20019;-78
2021/10/29 04:38:49;;;;;;;37.35;20.42;;;;;;;5.16;100.00;100878.56;5132061;27;20122;-78
2021/10/29 04:41:15;;;;;;;34.58;19.92;;;;;;;5.06;100.00;100858.13;5132720;27;20106;-79
2021/10/29 04:43:41;;;;;;;37.25;18.27;;;;;;;5.00;100.00;100848.03;5133270;27;20139;-79
2021/10/29 04:46:07;;;;;;;38.20;20.10;;;;;;;4.94;100.00;100837.97;5132340;27;20461;-79
2021/10/29 04:48:33;;;;;;;37.63;19.98;;;;;;;4.85;100.00;100830.75;5133185;27;20078;-79
2021/10/29 04:50:59;;;;;;;33.85;18.75;;;;;;;4.82;100.00;100828.34;5133531;27;20080;-78
2021/10/29 04:53:25;;;;;;;43.07;19.43;;;;;;;4.77;100.00;100822.59;5115229;27;20023;-78
2021/10/29 04:55:52;;;;;;;38.95;18.85;;;;;;;4.76;100.00;100819.13;5133769;27;20103;-79
2021/10/29 04:58:19;;;;;;;36.53;19.02;;;;;;;4.81;100.00;100832.81;5132689;27;20047;-79
2021/10/29 05:00:45;;;;;;;43.05;19.50;;;;;;;4.70;100.00;100822.22;5132698;27;20118;-79
2021/10/29 05:03:10;;;;;;;44.40;20.13;;;;;;;4.72;100.00;100828.25;5132221;27;20153;-79
2021/10/29 05:05:37;;;;;;;40.70;20.67;;;;;;;4.69;100.00;100830.31;5132508;27;20089;-79
2021/10/29 05:08:03;;;;;;;45.00;22.98;;;;;;;4.61;100.00;100826.47;5115369;27;20609;-78
2021/10/29 05:10:28;;;;;;;;;;;;;;;4.69;100.00;100849.66;5134011;27;20557;-79
2021/10/29 05:12:54;;;;;;;42.47;20.40;;;;;;;4.72;100.00;100861.78;5133374;27;19923;-79
2021/10/29 05:15:20;;;;;;;38.20;18.67;;;;;;;4.61;100.00;100847.63;5097904;27;20078;-79
2021/10/29 05:17:46;;;;;;;46.50;22.08;;;;;;;4.62;100.00;100848.47;5133142;27;20582;-79
2021/10/29 05:20:13;;;;;;;45.50;21.40;;;;;;;4.68;100.00;100861.19;5114946;27;20039;-79
2021/10/29 05:22:38;;;;;;;45.15;22.02;;;;;;;4.65;100.00;100861.44;5132111;27;20038;-78
2021/10/29 05:25:05;;;;;;;48.65;23.52;;;;;;;4.85;100.00;100897.75;5131735;27;20084;-78
2021/10/29 05:27:30;;;;;;;49.47;24.42;;;;;;;4.88;100.00;100912.53;5132909;27;20030;-79
2021/10/29 05:29:55;;;;;;;47.07;25.20;;;;;;;5.06;100.00;100911.06;5114321;27;20050;-78
2021/10/29 05:32:21;;;;;;;44.87;23.20;;;;;;;5.09;100.00;100912.63;5131366;27;20030;-78
2021/10/29 05:34:46;;;;;;;42.00;21.77;;;;;;;5.17;100.00;100906.69;5125812;27;20735;-79
2021/10/29 05:37:12;;;;;;;45.33;22.67;;;;;;;5.26;100.00;100913.91;5113005;27;20340;-79
2021/10/29 05:39:38;;;;;;;41.13;22.67;;;;;;;5.31;100.00;100898.47;5131465;27;20019;-77
2021/10/29 05:42:03;;;;;;;42.92;22.35;;;;;;;5.30;100.00;100888.88;5133434;27;20035;-77
2021/10/29 05:44:29;;;;;;;43.65;22.85;;;;;;;5.34;100.00;100884.16;5133485;27;20362;-77
2021/10/29 05:46:56;;;;;;;40.95;22.52;;;;;;;5.32;100.00;100867.56;5116308;27;20113;-77
2021/10/29 05:49:21;;;;;;;;;;;;;;;5.36;100.00;100877.78;5116218;27;20592;-78
2021/10/29 05:51:49;;;;;;;;;;;;;;;5.35;100.00;100876.09;5152216;27;19947;-77
2021/10/29 05:54:38;;;;;;;36.50;19.65;;;;;;;5.36;100.00;100859.25;5151284;27;20056;-77
2021/10/29 05:57:05;;;;;;;37.10;19.00;;;;;;;5.33;100.00;100853.34;5133765;27;20030;-77
2021/10/29 05:59:33;;;;;;;;;;;;;;;5.42;100.00;100855.25;5152184;27;20041;-77
2021/10/29 06:01:59;;;;;;;41.42;21.30;;;;;;;5.43;100.00;100843.69;5133455;27;19907;-78
2021/10/29 06:04:26;;;;;;;40.40;19.35;;;;;;;5.38;100.00;100824.69;5151074;27;20440;-78
2021/10/29 06:06:52;;;;;;;51.13;22.38;;;;;;;5.32;100.00;100817.28;5116344;27;20022;-77
2021/10/29 06:09:18;;;;;;;37.97;19.67;;;;;;;5.34;100.00;100810.03;5151724;27;20487;-77
2021/10/29 06:11:44;;;;;;;38.50;19.67;;;;;;;5.31;100.00;100805.00;5133381;27;20029;-78
2021/10/29 06:14:09;;;;;;;34.60;19.83;;;;;;;5.26;100.00;100795.63;5151301;27;20022;-77
2021/10/29 06:16:35;;;;;;;32.83;17.88;;;;;;;5.40;100.00;100825.41;5128953;27;20027;-78
2021/10/29 06:19:01;;;;;;;38.37;19.70;;;;;;;5.32;100.00;100815.47;5095649;27;20142;-77
2021/10/29 06:21:44;;;;;;;35.90;19.13;;;;;;;5.41;100.00;100825.28;5130685;27;20329;-77
2021/10/29 06:24:15;;;;;;;31.92;16.67;;;;;;;5.37;100.00;100810.63;5095046;27;20039;-77
2021/10/29 06:26:46;;;;;;;35.42;19.08;;;;;;;5.45;100.00;100813.47;5112568;27;20088;-77
2021/10/29 06:29:12;;;;;;;37.55;19.02;;;;;;;5.62;100.00;100824.44;5130525;27;20038;-78
2021/10/29 06:31:37;;;;;;;32.87;18.10;;;;;;;5.61;100.00;100814.84;5146685;27;20110;-77
2021/10/29 06:34:03;;;;;;;34.93;17.33;;;;;;;5.71;100.00;100807.78;5111127;27;20730;-78
2021/10/29 06:36:28;;;;;;;34.28;18.45;;;;;;;5.75;100.00;100806.56;5110954;27;20027;-78
2021/10/29 06:38:54;;;;;;;35.08;18.30;;;;;;;5.75;100.00;100795.13;5111068;27;20178;-77
2021/10/29 06:41:19;;;;;;;33.20;17.95;;;;;;;5.75;100.00;100787.19;5093810;27;20035;-77
2021/10/29 06:44:18;;;;;;;34.37;19.30;;;;;;;5.76;100.00;100781.78;5110623;27;20568;-77
2021/10/29 06:46:49;;;;;;;;;;;;;;;5.82;100.00;100783.88;5110767;27;20058;-78
2021/10/29 06:49:19;;;;;;;32.83;17.65;;;;;;;5.76;100.00;100773.81;5110145;27;20233;-78
2021/10/29 07:40:47;;;;;;;30.92;15.65;;;;;;;8.63;87.57;100763.63;5130630;27;20119;-77
2021/10/29 07:43:34;;;;;;;23.55;13.98;;;;;;;8.66;86.85;100746.53;5113343;27;20050;-77
2021/10/29 07:46:02;;;;;;;24.52;14.65;;;;;;;9.42;84.63;100771.88;5148589;27;20088;-78
2021/10/29 07:48:29;;;;;;;23.08;14.23;;;;;;;9.31;83.96;100764.97;5148685;27;20043;-77
2021/10/29 07:50:56;;;;;;;23.38;14.30;;;;;;;9.63;83.20;100767.03;5130415;27;20034;-77
2021/10/29 07:53:21;;;;;;;26.98;13.30;;;;;;;9.80;81.58;100759.97;5113048;27;20070;-78
2021/10/29 07:55:47;;;;;;;26.93;13.93;;;;;;;9.41;82.12;100730.22;5113066;27;20051;-77
2021/10/29 07:58:12;;;;;;;23.48;14.48;;;;;;;9.87;81.39;100754.88;5113090;27;20034;-77
2021/10/29 08:00:38;;;;;;;23.47;13.77;;;;;;;9.65;82.43;100765.06;5113527;27;20114;-78
2021/10/29 08:03:06;;;;;;;22.65;13.02;;;;;;;9.95;81.63;100770.94;5130363;27;20360;-77
2021/10/29 08:05:32;;;;;;;24.95;14.07;;;;;;;10.59;79.47;100771.41;5130154;27;20490;-77
2021/10/29 08:07:58;;;;;;;24.02;14.55;;;;;;;10.75;77.27;100739.41;5148488;27;20034;-78
2021/10/29 08:10:24;;;;;;;22.67;14.15;;;;;;;11.10;75.82;100744.66;5130346;27;20034;-77
2021/10/29 08:12:49;;;;;;;23.17;13.63;;;;;;;10.74;77.27;100742.22;5130672;27;20171;-78
2021/10/29 08:15:15;;;;;;;26.40;14.37;;;;;;;11.09;75.66;100741.13;5134099;27;20106;-78
2021/10/29 08:17:41;;;;;;;25.57;14.90;;;;;;;11.11;76.51;100748.97;5134516;27;20046;-78
2021/10/29 08:20:11;;;;;;;26.17;14.38;;;;;;;11.01;75.83;100722.41;5134247;27;20284;-78
2021/10/29 08:22:37;;;;;;;24.92;14.98;;;;;;;11.50;74.09;100719.72;5134149;27;20045;-77
2021/10/29 08:25:07;;;;;;;27.77;13.70;;;;;;;11.96;73.21;100760.13;5152196;27;20048;-78
2021/10/29 08:27:33;;;;;;;22.17;13.68;;;;;;;11.78;72.03;100693.44;5134196;27;20054;-79
2021/10/29 08:29:58;;;;;;;20.85;13.15;;;;;;;12.03;71.91;100725.47;5133986;27;20031;-78
2021/10/29 08:32:24;;;;;;;23.47;13.83;;;;;;;12.87;69.81;100750.66;5134258;27;20045;-78
2021/10/29 08:34:50;;;;;;;24.20;14.75;;;;;;;11.84;71.16;100668.66;5133813;27;20288;-77
2021/10/29 08:37:15;;;;;;;20.43;13.27;;;;;;;11.58;73.03;100690.28;5116659;27;20067;-78
2021/10/29 08:39:42;;;;;;;20.50;12.43;;;;;;;12.91;70.65;100756.53;5133818;27;20061;-78
2021/10/29 08:42:08;;;;;;;21.85;13.23;;;;;;;12.94;70.11;100745.44;5133822;27;20031;-78
2021/10/29 08:44:34;;;;;;;21.77;12.60;;;;;;;12.59;69.49;100691.41;5152659;27;20034;-78
2021/10/29 08:47:02;;;;;;;26.92;13.68;;;;;;;12.39;70.54;100692.88;5134774;27;20404;-78
2021/10/29 08:49:33;;;;;;;19.70;12.10;;;;;;;12.97;70.13;100731.69;5152571;27;20038;-78
2021/10/29 08:52:00;;;;;;;21.40;11.77;;;;;;;12.85;69.25;100675.03;5117110;27;20037;-78
2021/10/29 08:54:27;;;;;;;22.00;12.00;;;;;;;13.40;68.77;100736.59;5133983;27;20042;-78
2021/10/29 08:56:54;;;;;;;19.90;11.48;;;;;;;13.25;68.18;100696.28;5134436;27;20030;-79
2021/10/29 08:59:34;;;;;;;16.52;11.50;;;;;;;14.28;66.70;100753.75;5152735;27;20352;-79
2021/10/29 09:07:59;;;;;;;22.60;12.68;;;;;;;13.44;68.76;100687.78;5152758;27;20052;-76
2021/10/29 09:32:38;;;;;;;17.17;10.68;;;;;;;15.32;64.33;100637.84;5151999;27;20034;-80
2021/10/29 09:35:08;;;;;;;17.73;11.55;;;;;;;15.86;62.86;100669.47;5133614;27;20026;-80
2021/10/29 09:37:59;;;;;;;73.85;13.07;;;;;;;16.63;60.61;100673.69;5152161;27;20035;-79
2021/10/29 09:40:57;;;;;;;17.77;11.27;;;;;;;15.12;63.83;100610.78;5152304;27;20080;-79
2021/10/29 09:43:24;;;;;;;18.45;10.32;;;;;;;15.86;62.33;100630.94;5151624;27;20042;-79
2021/10/29 09:45:51;;;;;;;20.70;10.80;;;;;;;14.82;64.56;100594.00;5133565;27;20343;-79
2021/10/29 09:48:21;;;;;;;14.68;9.48;;;;;;;15.36;64.70;100644.50;5133330;27;20076;-80
2021/10/29 09:50:54;;;;;;;16.55;11.30;;;;;;;14.16;66.32;100546.66;5151723;27;20039;-80
2021/10/29 09:53:38;;;;;;;21.00;11.23;;;;;;;14.11;66.15;100549.91;5133480;27;20095;-80
2021/10/29 09:56:08;;;;;;;15.98;10.55;;;;;;;14.73;66.05;100612.97;5115770;27;20058;-80
2021/10/29 09:58:35;;;;;;;18.77;10.27;;;;;;;14.17;67.41;100585.94;5151772;27;20034;-80
2021/10/29 10:01:03;;;;;;;16.17;9.90;;;;;;;15.04;66.03;100635.97;5133390;27;20011;-80
2021/10/29 10:03:28;;;;;;;18.77;10.75;;;;;;;14.94;65.26;100581.72;5132982;27;20042;-81
2021/10/29 10:05:55;;;;;;;14.80;10.23;;;;;;;15.09;65.73;100611.19;5133244;27;20029;-80
2021/10/29 10:08:23;;;;;;;19.70;10.57;;;;;;;15.61;63.13;100588.34;5151291;27;20891;-80
2021/10/29 10:10:52;;;;;;;16.15;9.77;;;;;;;15.27;64.86;100595.41;5151077;27;20034;-79
2021/10/29 10:13:18;;;;;;;16.65;10.55;;;;;;;14.33;66.45;100537.34;5132610;27;20479;-79
2021/10/29 10:15:50;;;;;;;18.95;10.52;;;;;;;15.30;65.47;100613.00;5151272;27;20087;-81
2021/10/29 10:18:20;;;;;;;17.33;10.70;;;;;;;14.92;65.84;100591.84;5133207;27;20031;-79
2021/10/29 10:20:51;;;;;;;17.00;10.27;;;;;;;15.97;63.08;100630.38;5151223;27;20039;-80
2021/10/29 10:23:21;;;;;;;16.58;9.75;;;;;;;15.50;63.27;100560.16;5150630;27;20064;-80
2021/10/29 10:48:35;;;;;;;15.32;9.52;;;;;;;17.08;60.09;100590.34;5151050;27;20026;-80
2021/10/29 10:54:32;;;;;;;15.82;9.77;;;;;;;15.03;65.86;100516.03;5149851;27;20047;-81
2021/10/29 10:59:48;;;;;;;18.30;10.20;;;;;;;13.92;68.82;100513.81;5150660;27;20046;-81
2021/10/29 11:11:16;;;;;;;18.55;10.38;;;;;;;15.12;66.58;100557.00;5132598;27;20053;-81
2021/10/29 11:13:45;;;;;;;16.17;8.60;;;;;;;16.08;64.08;100593.94;5115069;27;20042;-81
2021/10/29 11:16:39;;;;;;;13.63;8.07;;;;;;;16.38;63.45;100579.09;5151004;27;20018;-81
2021/10/29 11:19:15;;;;;;;19.83;9.77;;;;;;;16.12;63.16;100538.66;5128358;27;20383;-80
2021/10/29 11:21:50;;;;;;;14.00;9.88;;;;;;;16.22;63.48;100568.72;5150644;27;20035;-81
2021/10/29 11:24:17;;;;;;;16.80;10.40;;;;;;;15.62;63.98;100501.22;5150405;27;20451;-79
2021/10/29 11:26:46;;;;;;;17.80;10.27;;;;;;;14.40;67.51;100482.84;5132577;27;20092;-80
2021/10/29 11:29:12;;;;;;;13.07;8.30;;;;;;;15.20;66.57;100555.00;5115026;27;20041;-81
2021/10/29 11:31:49;;;;;;;16.73;9.55;;;;;;;15.56;65.25;100567.41;5115597;27;20035;-81
2021/10/29 11:34:16;;;;;;;15.90;9.52;;;;;;;15.01;66.19;100503.78;5131657;27;20062;-80
2021/10/29 11:36:46;;;;;;;15.40;10.20;;;;;;;15.70;65.55;100562.94;5115378;27;20375;-80
2021/10/29 11:39:13;;;;;;;17.70;8.95;;;;;;;14.95;66.44;100505.41;5132049;27;20038;-81
2021/10/29 11:41:42;;;;;;;15.10;9.18;;;;;;;15.49;65.18;100526.19;5115220;27;20042;-80
2021/10/29 11:44:13;;;;;;;16.65;9.90;;;;;;;15.42;65.34;100509.19;5131784;27;20024;-81
2021/10/29 11:46:41;;;;;;;14.48;9.00;;;;;;;15.01;66.22;100477.75;5150368;27;20448;-81
2021/10/29 11:49:09;;;;;;;12.10;8.25;;;;;;;15.91;65.09;100564.69;5134885;27;20074;-81
2021/10/29 11:51:37;;;;;;;17.73;10.13;;;;;;;15.35;65.71;100495.72;5136095;27;20117;-81
2021/10/29 11:54:31;;;;;;;14.30;9.40;;;;;;;15.99;64.46;100531.34;5118406;27;20030;-80
2021/10/29 12:07:32;;;;;;;14.48;8.30;;;;;;;16.25;63.72;100506.38;5136212;27;20033;-81
2021/10/29 12:10:02;;;;;;;15.52;9.13;;;;;;;15.94;64.25;100453.06;5119030;27;20054;-81
2021/10/29 12:12:29;;;;;;;18.02;8.55;;;;;;;15.62;65.83;100483.19;5136261;27;20070;-81
2021/10/29 12:15:13;;;;;;;18.73;9.27;;;;;;;15.51;65.52;100443.41;5153536;27;20484;-81
2021/10/29 12:17:56;;;;;;;11.48;7.78;;;;;;;15.59;65.53;100445.94;5153948;27;20039;-80
2021/10/29 12:20:40;;;;;;;15.13;7.90;;;;;;;15.55;65.66;100444.69;5153966;27;20031;-81
2021/10/29 12:23:22;;;;;;;15.85;7.95;;;;;;;15.50;65.41;100435.53;5118330;27;20759;-81
2021/10/29 12:28:40;;;;;;;19.00;8.95;;;;;;;16.45;64.04;100492.88;5135511;27;20054;-82
2021/10/29 12:34:09;;;;;;;14.90;7.13;;;;;;;16.81;63.45;100497.03;5135159;27;20050;-80
2021/10/29 12:53:46;;;;;;;7.85;5.38;;;;;;;16.59;65.59;100472.16;5153425;27;20088;-80
2021/10/29 13:01:50;;;;;;;13.60;5.85;;;;;;;16.21;65.04;100410.84;5134858;27;20574;-81
2021/10/29 13:04:21;;;;;;;8.65;5.85;;;;;;;15.55;66.09;100369.34;5134762;27;20047;-80
2021/10/29 13:06:53;;;;;;;10.05;5.95;;;;;;;15.93;66.30;100441.47;5134826;27;20034;-79
2021/10/29 13:09:24;;;;;;;8.25;5.10;;;;;;;16.45;64.29;100422.84;5117707;27;20050;-80
2021/10/29 13:12:00;;;;;;;10.50;5.72;;;;;;;16.25;65.20;100406.72;5134762;27;20046;-80
2021/10/29 13:14:31;;;;;;;;;;;;;;;16.01;65.81;100394.66;5153011;27;20045;-80
2021/10/29 13:16:58;;;;;;;12.27;5.93;;;;;;;15.97;67.41;100426.56;5134455;27;20013;-80
2021/10/29 13:51:45;;;;;;;8.52;5.50;;;;;;;15.16;69.49;100389.72;5151948;27;20042;-80
2021/10/29 13:54:31;;;;;;;12.15;6.13;;;;;;;15.72;68.40;100420.13;5115673;27;20046;-80
2021/10/29 13:57:50;;;;;;;8.88;5.13;;;;;;;15.26;69.19;100381.25;5133753;27;20066;-79
2021/10/29 14:00:04;;;;;;;18.23;5.00;;;;;;;15.79;68.31;100440.63;5143185;27;20114;-80
2021/10/29 14:02:51;;;;;;;8.40;5.03;;;;;;;15.48;68.69;100403.47;5134544;27;20669;-80
2021/10/29 14:29:51;;;;;;;11.23;4.80;;;;;;;14.31;72.79;100407.81;5132943;27;20031;-80
2021/10/29 14:32:30;;;;;;;10.73;4.93;;;;;;;13.97;73.00;100370.16;5150941;27;20030;-80
2021/10/29 14:34:57;;;;;;;12.80;5.05;;;;;;;14.16;72.87;100401.69;5115440;27;20041;-80
2021/10/29 14:37:32;;;;;;;7.80;4.57;;;;;;;14.00;72.36;100365.25;5132815;27;20037;-80
2021/10/29 14:40:10;;;;;;;7.13;4.17;;;;;;;13.91;73.19;100356.50;5150953;27;20333;-80
2021/10/29 14:42:44;;;;;;;6.40;4.00;;;;;;;13.88;73.25;100382.88;5150780;27;20348;-79
2021/10/29 14:45:23;;;;;;;6.15;4.00;;;;;;;13.72;73.51;100362.53;5132347;27;20023;-79
2021/10/29 15:17:43;;;;;;;7.97;3.57;;;;;;;13.16;73.08;100311.38;5150439;27;20042;-79
2021/10/29 15:25:43;;;;;;;11.23;4.82;;;;;;;13.00;73.39;100297.22;5150052;27;20451;-86
2021/10/29 15:28:18;;;;;;;31.20;14.77;;;;;;;12.97;73.39;100300.28;5133951;27;20561;-87